Landes Station, West Virginia
Current Conditions -  °F | °C
As of 1:55 PM on Friday 21 Nov 2014 (Local Time) from KW99 Reporting Station
Clear Clear  
Wind Chill: 35°   Ceiling: Unl
Heat Index: 35°   Visibility: 10mi
Dew Point:   Wind: 0mph
Humidity: 24%   Direction: NA
Pressure: 30.44"   Gusts: NA
Location:  38.9337°N, 79.1435°W
Report Text: KW99 211855Z AUTO 00000KT 10SM CLR 01/M17 A3044 RMK AO2 T00141173
Loading
Personal Weather Stations






























Interactive Weather Map New forecast layout! Learn more

10-Day Weather Forecast

Advertisements
Track Severe Weather on mobile